ADDS METAR Data INFO
IDs: Format: Raw Decoded Include TAF

Data at: 2104 UTC 22 Jun 2018

METAR for:KAUS (Austin/Bergstrom Int, TX, US)
Text:KAUS 222053Z 20006KT 9SM FEW055 SCT250 36/22 A2984 RMK AO2 SLP090 T03610222 56021
Temperature: 36.1°C ( 97°F)
Dewpoint: 22.2°C ( 72°F) [RH = 45%]
Pressure (altimeter):29.84 inches Hg (1010.6 mb) [Sea level pressure: 1009.0 mb]
Winds:from the SSW (200 degrees) at 7 MPH (6 knots; 3.1 m/s)
Visibility: 9 sm ( 14 km)
Ceiling:at least 12,000 feet AGL
Clouds: few clouds at 5500 feet AGL, scattered clouds at 25000 feet AGL